Punta Gorda Airport

Date: 2024-06-11 07:39:00Z

Type: SPECI

Weather: Thunderstorms

Winds: 40° at 4 kts

Visibility: 10+

Ceiling (AGL FT): Clouds FEW at 700, BROKEN at 2900, BROKEN at 10000, OVERCAST at 6000

RAW METAR: KPGD 110739Z AUTO 04004KT 10SM TS FEW007 BKN029 BKN100 26/24 A2987 RMK AO2 RAB11E22 TSB33 P0000 T02560239

project-image